Time;durP1;ratioP1;P1;durP2;ratioP2;P2;SDS_P1;SDS_P2;PMS_P1;PMS_P2;Temp;Humidity;BMP_temperature;BMP_pressure;BME280_temperature;BME280_humidity;BME280_pressure;Samples;Min_cycle;Max_cycle;Signal;HPM_P1;HPM_P2
2021/06/07 07:33:14;;;;;;;;;;;16.80;99.90;;;;;;6150392;23;19917;-82
2021/06/07 07:35:41;;;;;;;;;;;16.80;99.90;;;;;;6156987;23;19963;-81
2021/06/07 07:38:08;;;;;;;;;;;16.80;99.90;;;;;;6156508;23;19916;-81
2021/06/07 07:40:37;;;;;;;;;;;16.90;99.90;;;;;;6156459;23;19927;-82
2021/06/07 07:43:04;;;;;;;;;;;16.80;99.90;;;;;;6154902;23;19940;-83
2021/06/07 07:45:32;;;;;;;;;;;16.80;99.90;;;;;;6154534;23;20402;-82
2021/06/07 07:47:59;;;;;;;;;;;16.80;99.90;;;;;;6157063;23;19995;-82
2021/06/07 07:50:27;;;;;;;;;;;16.90;99.90;;;;;;6154407;23;19939;-81
2021/06/07 07:52:54;;;;;;;;;;;16.90;99.90;;;;;;6156677;23;19928;-81
2021/06/07 07:55:22;;;;;;;;;;;17.00;99.90;;;;;;6155932;23;19917;-82
2021/06/07 07:57:50;;;;;;;;;;;17.10;99.90;;;;;;6156020;23;19916;-82
2021/06/07 08:00:22;;;;;;;;;;;17.10;99.90;;;;;;6154444;23;20394;-82
2021/06/07 08:02:49;;;;;;;;;;;17.20;99.90;;;;;;6155425;23;19971;-83
2021/06/07 08:05:15;;;;;;;;;;;17.20;99.90;;;;;;6179035;23;20334;-82
2021/06/07 08:07:42;;;;;;;;;;;17.20;99.90;;;;;;6156458;23;20327;-82
2021/06/07 08:10:10;;;;;;;;;;;17.20;99.90;;;;;;6155629;23;19916;-82
2021/06/07 08:12:37;;;;;;;;;;;17.20;99.90;;;;;;6156577;23;19967;-82
2021/06/07 08:15:05;;;;;;;;;;;17.30;99.90;;;;;;6156089;23;19916;-82
2021/06/07 08:17:33;;;;;;;;;;;17.30;99.90;;;;;;6154226;23;19963;-82
2021/06/07 08:20:01;;;;;;;;;;;17.30;99.90;;;;;;6154871;23;19940;-82
2021/06/07 08:22:28;;;;;;;;;;;17.30;99.90;;;;;;6156029;23;19916;-82
2021/06/07 08:24:55;;;;;;;;;;;17.20;99.90;;;;;;6154404;23;19916;-83
2021/06/07 08:27:21;;;;;;;;;;;17.10;99.90;;;;;;6155634;23;19971;-81
2021/06/07 08:29:49;;;;;;;;;;;17.00;99.90;;;;;;6154689;23;20280;-80
2021/06/07 08:32:17;;;;;;;;;;;16.80;99.90;;;;;;6155076;23;19921;-81
2021/06/07 08:34:43;;;;;;;;;;;16.70;99.90;;;;;;6154519;23;19921;-80
2021/06/07 08:37:10;;;;;;;;;;;16.60;99.90;;;;;;6154348;23;19920;-81
2021/06/07 08:39:37;;;;;;;;;;;16.50;99.90;;;;;;6153947;23;19971;-80
2021/06/07 08:42:04;;;;;;;;;;;16.50;99.90;;;;;;6153875;23;19975;-82
2021/06/07 08:44:31;;;;;;;;;;;16.40;99.90;;;;;;6154496;23;19916;-79
2021/06/07 08:46:58;;;;;;;;;;;16.40;99.90;;;;;;6156023;23;19932;-80
2021/06/07 08:49:25;;;;;;;;;;;16.30;99.90;;;;;;6155193;23;19917;-81
2021/06/07 08:51:52;;;;;;;;;;;16.30;99.90;;;;;;6155646;23;19980;-81
2021/06/07 08:54:19;;;;;;;;;;;16.30;99.90;;;;;;6154055;23;19917;-80
2021/06/07 08:56:46;;;;;;;;;;;16.30;99.90;;;;;;6155845;23;19920;-80
2021/06/07 08:59:14;;;;;;;;;;;16.30;99.90;;;;;;6153366;23;19967;-81
2021/06/07 09:01:41;;;;;;;;;;;16.40;99.90;;;;;;6155441;23;19916;-80
2021/06/07 09:04:18;;;;;;;;;;;16.40;99.90;;;;;;6153854;23;19921;-80
2021/06/07 09:06:46;;;;;;;;;;;16.50;99.90;;;;;;6154176;23;20284;-80
2021/06/07 09:09:14;;;;;;;;;;;16.70;99.90;;;;;;6154857;23;20296;-81
2021/06/07 09:11:57;;;;;;;;;;;16.80;99.90;;;;;;6155323;23;20341;-79
2021/06/07 09:14:25;;;;;;;;;;;16.80;99.90;;;;;;6153086;23;19991;-79
2021/06/07 09:16:53;;;;;;;;;;;16.80;99.90;;;;;;6154571;23;20241;-80
2021/06/07 09:19:29;;;;;;;;;;;16.80;99.90;;;;;;6153636;23;19916;-81
2021/06/07 09:22:16;;;;;;;;;;;16.90;99.90;;;;;;6153833;23;19971;-80
2021/06/07 09:25:01;;;;;;;;;;;17.10;99.90;;;;;;6155077;23;19916;-83
2021/06/07 09:27:27;;;;;;;;;;;17.20;99.90;;;;;;6154874;23;19917;-80
2021/06/07 09:29:54;;;;;;;;;;;17.30;99.90;;;;;;6153807;23;20251;-79
2021/06/07 09:32:21;;;;;;;;;;;17.40;99.90;;;;;;6153011;23;19920;-79
2021/06/07 09:35:08;;;;;;;;;;;17.50;99.90;;;;;;6154430;23;19921;-79
2021/06/07 09:37:35;;;;;;;;;;;17.60;99.90;;;;;;6154676;23;19948;-80
2021/06/07 09:40:21;;;;;;;;;;;17.70;99.90;;;;;;6153934;23;20336;-80
2021/06/07 09:42:58;;;;;;;;;;;17.70;99.90;;;;;;6155071;23;19951;-82
2021/06/07 09:45:39;;;;;;;;;;;17.90;99.90;;;;;;6153484;23;19923;-83
2021/06/07 09:48:10;;;;;;;;;;;18.10;99.90;;;;;;6153520;23;19916;-83
2021/06/07 09:50:37;;;;;;;;;;;18.30;99.90;;;;;;6155382;23;19921;-81
2021/06/07 09:53:03;;;;;;;;;;;18.40;99.90;;;;;;6153762;23;19917;-84
2021/06/07 09:55:32;;;;;;;;;;;18.60;99.90;;;;;;6155346;23;20015;-85
2021/06/07 09:58:01;;;;;;;;;;;18.80;99.90;;;;;;6155556;23;19917;-84
2021/06/07 10:00:30;;;;;;;;;;;19.00;99.90;;;;;;6154843;23;19955;-84
2021/06/07 10:02:57;;;;;;;;;;;19.20;99.90;;;;;;6153491;23;20340;-84
2021/06/07 10:05:35;;;;;;;;;;;19.20;99.90;;;;;;6154778;23;20299;-85
2021/06/07 10:08:02;;;;;;;;;;;19.40;99.90;;;;;;6155266;23;19971;-83
2021/06/07 10:10:29;;;;;;;;;;;19.50;99.90;;;;;;6155193;23;19964;-84
2021/06/07 10:13:03;;;;;;;;;;;19.60;99.90;;;;;;6155204;23;19916;-83
2021/06/07 10:15:49;;;;;;;;;;;19.70;99.90;;;;;;6153478;23;19939;-85
2021/06/07 10:18:18;;;;;;;;;;;19.70;99.90;;;;;;6154883;23;19920;-83
2021/06/07 10:20:50;;;;;;;;;;;19.90;99.90;;;;;;6153831;23;19916;-84
2021/06/07 10:23:22;;;;;;;;;;;20.10;99.90;;;;;;6154654;23;19950;-82
2021/06/07 10:25:50;;;;;;;;;;;20.30;99.90;;;;;;6153578;23;19917;-84
2021/06/07 10:28:17;;;;;;;;;;;20.40;99.90;;;;;;6154953;23;19963;-84
2021/06/07 10:30:45;;;;;;;;;;;20.40;99.90;;;;;;6155109;23;19916;-84
2021/06/07 10:33:29;;;;;;;;;;;20.50;99.90;;;;;;6151052;23;19944;-85
2021/06/07 10:35:57;;;;;;;;;;;20.60;99.90;;;;;;6153264;23;20363;-82
2021/06/07 10:38:34;;;;;;;;;;;20.50;99.90;;;;;;6152896;23;19979;-84
2021/06/07 10:41:20;;;;;;;;;;;20.50;99.90;;;;;;6153027;23;19975;-86
2021/06/07 10:43:57;;;;;;;;;;;20.60;99.90;;;;;;6150354;23;19927;-85
2021/06/07 10:46:38;;;;;;;;;;;20.60;99.90;;;;;;6150752;23;19979;-83
2021/06/07 10:49:25;;;;;;;;;;;20.70;99.90;;;;;;6152651;23;19939;-82
2021/06/07 10:52:13;;;;;;;;;;;20.70;99.90;;;;;;6154585;23;19975;-85
2021/06/07 10:54:54;;;;;;;;;;;20.80;99.90;;;;;;6153785;23;20328;-83
2021/06/07 10:57:25;;;;;;;;;;;20.90;99.90;;;;;;6154115;23;19920;-82
2021/06/07 11:00:05;;;;;;;;;;;20.90;99.90;;;;;;6152463;23;19916;-82
2021/06/07 11:02:34;;;;;;;;;;;21.00;99.90;;;;;;6153830;23;19916;-83
2021/06/07 11:05:09;;;;;;;;;;;21.10;99.90;;;;;;6153797;23;19987;-83
2021/06/07 11:07:36;;;;;;;;;;;21.10;99.90;;;;;;6153254;23;19917;-82
2021/06/07 11:10:19;;;;;;;;;;;21.20;99.90;;;;;;6153580;23;20591;-83
2021/06/07 11:12:47;;;;;;;;;;;21.30;99.90;;;;;;6153976;23;19986;-84
2021/06/07 11:15:21;;;;;;;;;;;21.50;99.90;;;;;;6154190;23;19920;-83
2021/06/07 11:17:49;;;;;;;;;;;21.60;99.90;;;;;;6151925;23;19917;-83
2021/06/07 11:20:30;;;;;;;;;;;21.60;99.90;;;;;;6150485;23;19920;-85
2021/06/07 11:23:10;;;;;;;;;;;21.50;99.90;;;;;;6152743;23;20967;-84
2021/06/07 11:25:48;;;;;;;;;;;21.60;99.90;;;;;;6154184;23;19916;-83
2021/06/07 11:28:30;;;;;;;;;;;21.70;99.90;;;;;;6151549;23;19917;-86
2021/06/07 11:30:59;;;;;;;;;;;21.90;99.90;;;;;;6151144;23;20305;-85
2021/06/07 11:33:26;;;;;;;;;;;22.10;99.90;;;;;;6150432;23;19920;-85
2021/06/07 11:35:54;;;;;;;;;;;22.30;99.90;;;;;;6149515;23;19924;-85
2021/06/07 11:38:27;;;;;;;;;;;22.60;99.90;;;;;;6149794;23;20333;-86
2021/06/07 11:40:54;;;;;;;;;;;22.70;99.90;;;;;;6151012;23;20350;-85
2021/06/07 11:43:39;;;;;;;;;;;22.70;99.90;;;;;;6149349;23;19975;-85
2021/06/07 11:46:06;;;;;;;;;;;22.90;99.90;;;;;;6149460;23;19916;-86
2021/06/07 11:48:52;;;;;;;;;;;23.00;99.90;;;;;;6152385;23;20255;-84
2021/06/07 11:51:32;;;;;;;;;;;23.10;99.90;;;;;;6151974;23;19972;-85
2021/06/07 11:53:58;;;;;;;;;;;23.20;99.90;;;;;;6150697;23;19917;-84
2021/06/07 11:56:25;;;;;;;;;;;23.30;99.90;;;;;;6150088;23;19983;-84
2021/06/07 11:58:53;;;;;;;;;;;23.20;99.90;;;;;;6152499;23;20344;-84
2021/06/07 12:01:20;;;;;;;;;;;23.10;99.90;;;;;;6153048;23;19917;-86
2021/06/07 12:03:47;;;;;;;;;;;22.90;99.90;;;;;;6153882;23;19995;-86
2021/06/07 12:06:14;;;;;;;;;;;22.80;99.90;;;;;;6152553;23;19927;-85
2021/06/07 12:08:40;;;;;;;;;;;22.60;99.90;;;;;;6151134;23;20288;-85
2021/06/07 12:11:08;;;;;;;;;;;22.50;99.90;;;;;;6151254;23;19920;-83
2021/06/07 12:13:36;;;;;;;;;;;22.50;99.90;;;;;;6153772;23;19917;-83
2021/06/07 12:16:05;;;;;;;;;;;22.40;99.90;;;;;;6155775;23;19921;-83
2021/06/07 12:18:34;;;;;;;;;;;22.40;99.90;;;;;;6155853;23;19955;-83
2021/06/07 12:21:03;;;;;;;;;;;22.30;99.90;;;;;;6154752;23;19917;-82
2021/06/07 12:23:36;;;;;;;;;;;22.40;99.90;;;;;;6154342;23;19916;-83
2021/06/07 12:29:20;;;;;;;;;;;22.40;99.90;;;;;;6155011;23;19920;-84
2021/06/07 12:32:06;;;;;;;;;;;22.20;99.90;;;;;;6155738;23;19921;-88
2021/06/07 12:34:33;;;;;;;;;;;21.90;99.90;;;;;;6154164;23;19917;-85
2021/06/07 12:37:00;;;;;;;;;;;21.50;99.90;;;;;;6155102;23;19963;-86
2021/06/07 12:39:27;;;;;;;;;;;21.20;99.90;;;;;;6154518;23;19972;-85
2021/06/07 12:41:54;;;;;;;;;;;21.00;99.90;;;;;;6156085;23;20324;-85
2021/06/07 12:44:24;;;;;;;;;;;20.80;99.90;;;;;;6155610;23;19916;-86
2021/06/07 12:46:52;;;;;;;;;;;20.70;99.90;;;;;;6154485;23;19920;-85
2021/06/07 12:49:23;;;;;;;;;;;20.70;99.90;;;;;;6154354;23;19920;-85
2021/06/07 12:51:56;;;;;;;;;;;20.60;99.90;;;;;;6154007;23;19917;-86
2021/06/07 12:54:23;;;;;;;;;;;20.50;99.90;;;;;;6154389;23;20328;-86
2021/06/07 12:56:50;;;;;;;;;;;20.40;99.90;;;;;;6154417;23;19964;-86
2021/06/07 12:59:17;;;;;;;;;;;20.50;99.90;;;;;;6154275;23;19920;-85
2021/06/07 13:01:46;;;;;;;;;;;20.60;99.90;;;;;;6156173;23;20292;-86
2021/06/07 13:04:23;;;;;;;;;;;20.70;99.90;;;;;;6154116;23;19917;-85
2021/06/07 13:06:50;;;;;;;;;;;20.60;99.90;;;;;;6156449;23;20390;-86
2021/06/07 13:09:17;;;;;;;;;;;20.50;99.90;;;;;;6154192;23;19920;-87
2021/06/07 13:11:47;;;;;;;;;;;20.20;99.90;;;;;;6156083;23;19979;-87
2021/06/07 13:14:17;;;;;;;;;;;20.10;99.90;;;;;;6152994;23;19917;-86
2021/06/07 13:16:45;;;;;;;;;;;20.10;99.90;;;;;;6154041;23;20903;-86
2021/06/07 13:19:12;;;;;;;;;;;20.20;99.90;;;;;;6153708;23;19916;-86
2021/06/07 13:21:46;;;;;;;;;;;20.40;99.90;;;;;;6154718;23;20370;-85
2021/06/07 13:24:15;;;;;;;;;;;20.50;99.90;;;;;;6155475;23;19917;-86
2021/06/07 13:26:43;;;;;;;;;;;20.50;99.90;;;;;;6156507;23;19948;-85
2021/06/07 13:29:15;;;;;;;;;;;20.50;99.90;;;;;;6153662;23;19959;-88
2021/06/07 13:31:56;;;;;;;;;;;20.50;99.90;;;;;;6155295;23;19917;-86
2021/06/07 13:34:28;;;;;;;;;;;20.60;99.90;;;;;;6153885;23;19916;-85
2021/06/07 13:37:05;;;;;;;;;;;20.50;99.90;;;;;;6154415;23;19916;-85
2021/06/07 13:39:33;;;;;;;;;;;20.50;99.90;;;;;;6153132;23;19916;-86
2021/06/07 13:42:00;;;;;;;;;;;20.50;99.90;;;;;;6155629;23;19916;-86
2021/06/07 13:44:27;;;;;;;;;;;20.60;99.90;;;;;;6153528;23;19916;-83
2021/06/07 13:47:03;;;;;;;;;;;20.60;99.90;;;;;;6155545;23;19948;-89
2021/06/07 13:49:30;;;;;;;;;;;20.60;99.90;;;;;;6153415;23;19967;-86
2021/06/07 13:51:57;;;;;;;;;;;20.60;99.90;;;;;;6153661;23;19920;-87
2021/06/07 13:54:24;;;;;;;;;;;20.70;99.90;;;;;;6152886;23;20318;-87
2021/06/07 13:56:59;;;;;;;;;;;20.80;99.90;;;;;;6154009;23;20336;-85
2021/06/07 13:59:26;;;;;;;;;;;20.80;99.90;;;;;;6152472;23;19920;-84
2021/06/07 14:01:54;;;;;;;;;;;20.80;99.90;;;;;;6154188;23;19921;-85
2021/06/07 14:04:21;;;;;;;;;;;20.90;99.90;;;;;;6153120;23;20326;-87
2021/06/07 14:06:50;;;;;;;;;;;21.00;99.90;;;;;;6155958;23;19967;-85
2021/06/07 14:09:17;;;;;;;;;;;21.20;99.90;;;;;;6153408;23;19916;-86
2021/06/07 14:11:44;;;;;;;;;;;21.30;99.90;;;;;;6154503;23;19916;-82
2021/06/07 14:14:13;;;;;;;;;;;21.50;99.90;;;;;;6153218;23;19991;-87
2021/06/07 14:16:40;;;;;;;;;;;21.60;99.90;;;;;;6155389;23;19975;-88
2021/06/07 14:19:08;;;;;;;;;;;21.70;99.90;;;;;;6153478;23;19916;-86
2021/06/07 14:21:46;;;;;;;;;;;21.60;99.90;;;;;;6154072;23;19920;-86
2021/06/07 14:26:58;;;;;;;;;;;21.50;99.90;;;;;;6153771;23;19920;-87
2021/06/07 14:29:25;;;;;;;;;;;21.70;99.90;;;;;;6151328;23;19917;-88
2021/06/07 14:31:53;;;;;;;;;;;21.90;99.90;;;;;;6153393;23;19974;-87
2021/06/07 14:34:20;;;;;;;;;;;21.80;99.90;;;;;;6151581;23;19921;-85
2021/06/07 14:36:49;;;;;;;;;;;22.00;99.90;;;;;;6152805;23;19916;-87
2021/06/07 14:39:16;;;;;;;;;;;22.00;99.90;;;;;;6152572;23;19920;-86
2021/06/07 14:41:43;;;;;;;;;;;21.90;99.90;;;;;;6154844;23;19916;-85
2021/06/07 14:44:09;;;;;;;;;;;21.90;99.90;;;;;;6152636;23;19917;-86
2021/06/07 14:46:36;;;;;;;;;;;21.80;99.90;;;;;;6152911;23;19916;-89
2021/06/07 14:49:03;;;;;;;;;;;21.60;99.90;;;;;;6154681;23;19917;-85
2021/06/07 14:51:30;;;;;;;;;;;21.50;99.90;;;;;;6154655;23;19916;-87
2021/06/07 14:53:57;;;;;;;;;;;21.40;99.90;;;;;;6154908;23;19921;-86
2021/06/07 14:56:24;;;;;;;;;;;21.40;99.90;;;;;;6154349;23;20340;-86
2021/06/07 14:58:50;;;;;;;;;;;21.30;99.90;;;;;;6153805;23;19987;-87
2021/06/07 15:01:17;;;;;;;;;;;21.30;99.90;;;;;;6153322;23;19972;-88
2021/06/07 15:03:44;;;;;;;;;;;21.40;99.90;;;;;;6153711;23;19963;-88
2021/06/07 15:06:13;;;;;;;;;;;21.40;99.90;;;;;;6152250;23;20256;-90
2021/06/07 15:08:40;;;;;;;;;;;21.40;99.90;;;;;;6153404;23;19916;-87
2021/06/07 15:11:07;;;;;;;;;;;21.40;99.90;;;;;;6154318;23;19917;-86
2021/06/07 15:13:33;;;;;;;;;;;21.40;99.90;;;;;;6154848;23;19972;-88
2021/06/07 15:16:00;;;;;;;;;;;21.40;99.90;;;;;;6154084;23;19917;-89
2021/06/07 15:18:27;;;;;;;;;;;21.30;99.90;;;;;;6153630;23;19921;-88
2021/06/07 15:20:57;;;;;;;;;;;21.30;99.90;;;;;;6154808;23;19963;-90
2021/06/07 15:23:25;;;;;;;;;;;21.40;99.90;;;;;;6154095;23;19916;-88
2021/06/07 15:25:53;;;;;;;;;;;21.60;99.90;;;;;;6153302;23;20396;-91
2021/06/07 15:28:20;;;;;;;;;;;21.60;99.90;;;;;;6151901;23;19936;-90
2021/06/07 15:30:47;;;;;;;;;;;21.40;99.90;;;;;;6152400;23;19920;-90
2021/06/07 15:33:13;;;;;;;;;;;21.40;99.90;;;;;;6152283;23;19916;-90
2021/06/07 15:35:47;;;;;;;;;;;21.40;99.90;;;;;;6154547;23;20398;-90
2021/06/07 15:38:14;;;;;;;;;;;21.40;99.90;;;;;;6153197;23;19920;-89
2021/06/07 15:40:41;;;;;;;;;;;21.40;99.90;;;;;;6154796;23;19917;-90
2021/06/07 15:43:08;;;;;;;;;;;21.40;99.90;;;;;;6154109;23;19964;-91
2021/06/07 15:45:35;;;;;;;;;;;21.20;99.90;;;;;;6156358;23;19916;-89
2021/06/07 15:48:04;;;;;;;;;;;21.10;99.90;;;;;;6156236;23;19971;-89
2021/06/07 15:50:31;;;;;;;;;;;21.20;99.90;;;;;;6154001;23;19916;-91
2021/06/07 15:52:58;;;;;;;;;;;21.20;99.90;;;;;;6155621;23;20670;-88
2021/06/07 15:55:25;;;;;;;;;;;21.30;99.90;;;;;;6155624;23;19967;-88
2021/06/07 15:57:56;;;;;;;;;;;21.20;99.90;;;;;;6156512;23;19920;-92
2021/06/07 16:00:24;;;;;;;;;;;21.20;99.90;;;;;;6154026;23;19928;-88
2021/06/07 16:02:51;;;;;;;;;;;21.10;99.90;;;;;;6155103;23;19916;-87
2021/06/07 16:05:18;;;;;;;;;;;21.00;99.90;;;;;;6154523;23;20374;-89
2021/06/07 16:07:45;;;;;;;;;;;20.90;99.90;;;;;;6153302;23;20003;-87
2021/06/07 16:10:12;;;;;;;;;;;20.80;99.90;;;;;;6152384;23;19920;-89
2021/06/07 16:12:39;;;;;;;;;;;20.70;99.90;;;;;;6154327;23;19917;-87
2021/06/07 16:15:07;;;;;;;;;;;20.60;99.90;;;;;;6153727;23;19987;-86
2021/06/07 16:17:35;;;;;;;;;;;20.40;99.90;;;;;;6155024;23;19921;-88
2021/06/07 16:21:10;;;;;;;;;;;20.20;99.90;;;;;;6152986;23;20328;-88
2021/06/07 16:22:49;;;;;;;;;;;20.20;99.90;;;;;;6154864;23;19920;-86
2021/06/07 16:25:16;;;;;;;;;;;20.10;99.90;;;;;;6153755;23;19920;-88
2021/06/07 16:27:43;;;;;;;;;;;20.20;99.90;;;;;;6154172;23;19975;-87
2021/06/07 16:30:10;;;;;;;;;;;20.30;99.90;;;;;;6152743;23;19917;-86
2021/06/07 16:32:38;;;;;;;;;;;20.40;99.90;;;;;;6152789;23;19967;-86
2021/06/07 16:35:05;;;;;;;;;;;20.40;99.90;;;;;;6152791;23;19916;-88
2021/06/07 16:37:32;;;;;;;;;;;20.50;99.90;;;;;;6155030;23;19924;-88
2021/06/07 16:39:59;;;;;;;;;;;20.40;99.90;;;;;;6154298;23;19955;-87
2021/06/07 16:42:28;;;;;;;;;;;20.30;99.90;;;;;;6154338;23;19917;-87
2021/06/07 16:44:55;;;;;;;;;;;20.10;99.90;;;;;;6154545;23;19989;-86
2021/06/07 16:47:29;;;;;;;;;;;20.10;99.90;;;;;;6152641;23;19916;-87
2021/06/07 16:49:58;;;;;;;;;;;20.00;99.90;;;;;;6154629;23;19916;-87
2021/06/07 16:52:25;;;;;;;;;;;20.00;99.90;;;;;;6152860;23;19916;-86
2021/06/07 16:54:52;;;;;;;;;;;20.00;99.90;;;;;;6154795;23;19944;-87
2021/06/07 16:57:19;;;;;;;;;;;20.00;99.90;;;;;;6154340;23;19924;-86
2021/06/07 16:59:48;;;;;;;;;;;19.90;99.90;;;;;;6155192;23;19917;-87
2021/06/07 17:02:16;;;;;;;;;;;20.00;99.90;;;;;;6155041;23;19917;-86
2021/06/07 17:04:43;;;;;;;;;;;20.00;99.90;;;;;;6152631;23;20259;-87
2021/06/07 17:07:09;;;;;;;;;;;19.90;99.90;;;;;;6152508;23;19974;-88
2021/06/07 17:09:36;;;;;;;;;;;19.90;99.90;;;;;;6155010;23;19971;-86
2021/06/07 17:12:03;;;;;;;;;;;19.90;99.90;;;;;;6151860;23;19920;-87
2021/06/07 17:14:39;;;;;;;;;;;19.90;99.90;;;;;;6152682;23;19924;-86
2021/06/07 17:17:05;;;;;;;;;;;20.00;99.90;;;;;;6139429;23;19967;-87
2021/06/07 17:19:32;;;;;;;;;;;20.10;99.90;;;;;;6153537;23;19916;-87
2021/06/07 17:21:59;;;;;;;;;;;20.20;99.90;;;;;;6151714;23;19920;-88
2021/06/07 17:24:26;;;;;;;;;;;20.30;99.90;;;;;;6153896;23;20689;-87
2021/06/07 17:26:53;;;;;;;;;;;20.40;99.90;;;;;;6152533;23;19921;-86
2021/06/07 17:29:20;;;;;;;;;;;20.50;99.90;;;;;;6151247;23;19921;-87
2021/06/07 17:31:46;;;;;;;;;;;20.80;99.90;;;;;;6154178;23;19920;-88
2021/06/07 17:34:15;;;;;;;;;;;21.10;99.90;;;;;;6153912;23;19999;-87
2021/06/07 17:36:42;;;;;;;;;;;21.20;99.90;;;;;;6152348;23;19917;-86
2021/06/07 17:39:09;;;;;;;;;;;21.10;99.90;;;;;;6151970;23;19916;-87
2021/06/07 17:41:36;;;;;;;;;;;20.90;99.90;;;;;;6153956;23;19916;-87
2021/06/07 17:44:03;;;;;;;;;;;20.90;99.90;;;;;;6153535;23;19928;-87
2021/06/07 17:46:30;;;;;;;;;;;20.80;99.90;;;;;;6152349;23;19926;-86
2021/06/07 17:48:57;;;;;;;;;;;20.50;99.90;;;;;;6152535;23;20294;-86
2021/06/07 17:51:24;;;;;;;;;;;20.30;99.90;;;;;;6154058;23;19928;-88
2021/06/07 17:53:51;;;;;;;;;;;20.10;99.90;;;;;;6153340;23;19921;-86
2021/06/07 17:56:20;;;;;;;;;;;20.00;99.90;;;;;;6152036;23;19921;-86
2021/06/07 17:58:47;;;;;;;;;;;19.90;99.90;;;;;;6152812;23;19916;-87
2021/06/07 18:01:14;;;;;;;;;;;19.90;99.90;;;;;;6151504;23;20307;-85
2021/06/07 18:03:40;;;;;;;;;;;20.00;99.90;;;;;;6152978;23;19967;-86
2021/06/07 18:06:07;;;;;;;;;;;20.10;99.90;;;;;;6153788;23;20260;-87
2021/06/07 18:08:34;;;;;;;;;;;20.10;99.90;;;;;;6154218;23;20272;-87
2021/06/07 18:11:01;;;;;;;;;;;20.30;99.90;;;;;;6152684;23;20398;-87
2021/06/07 18:13:28;;;;;;;;;;;20.40;99.90;;;;;;6152319;23;19988;-87
2021/06/07 18:16:00;;;;;;;;;;;20.30;99.90;;;;;;6152570;23;19920;-87
2021/06/07 18:18:27;;;;;;;;;;;20.30;99.90;;;;;;6151710;23;19917;-86
2021/06/07 18:20:54;;;;;;;;;;;20.30;99.90;;;;;;6153973;23;19917;-86
2021/06/07 18:23:21;;;;;;;;;;;20.40;99.90;;;;;;6151641;23;19917;-87
2021/06/07 18:25:48;;;;;;;;;;;20.80;99.90;;;;;;6153567;23;19920;-86
2021/06/07 18:28:14;;;;;;;;;;;21.10;99.90;;;;;;6153008;23;19920;-85
2021/06/07 18:30:41;;;;;;;;;;;21.20;99.90;;;;;;6151300;23;19920;-86
2021/06/07 18:33:08;;;;;;;;;;;21.00;99.90;;;;;;6151479;23;19920;-87
2021/06/07 18:35:35;;;;;;;;;;;20.80;99.90;;;;;;6150635;23;19920;-86
2021/06/07 18:38:01;;;;;;;;;;;20.80;99.90;;;;;;6153253;23;19917;-85
2021/06/07 18:40:28;;;;;;;;;;;21.10;99.90;;;;;;6151734;23;19983;-85
2021/06/07 18:42:57;;;;;;;;;;;21.60;99.90;;;;;;6152755;23;19916;-83
2021/06/07 18:45:25;;;;;;;;;;;22.10;99.90;;;;;;6151760;23;19924;-86
2021/06/07 18:47:52;;;;;;;;;;;22.50;99.90;;;;;;6151707;23;19920;-86
2021/06/07 18:50:20;;;;;;;;;;;23.10;99.80;;;;;;6151693;23;19921;-82
2021/06/07 18:52:49;;;;;;;;;;;23.50;98.50;;;;;;6151710;23;19917;-86
2021/06/07 18:55:22;;;;;;;;;;;23.60;98.10;;;;;;6152814;23;19918;-86
2021/06/07 18:57:50;;;;;;;;;;;24.00;97.80;;;;;;6152110;23;19916;-84
2021/06/07 19:00:17;;;;;;;;;;;24.40;97.50;;;;;;6153026;23;20367;-85
2021/06/07 19:02:44;;;;;;;;;;;24.60;96.70;;;;;;6151812;23;19971;-85
2021/06/07 19:05:13;;;;;;;;;;;24.80;96.60;;;;;;6150901;23;20299;-85
2021/06/07 19:07:39;;;;;;;;;;;24.90;95.80;;;;;;6152148;23;19916;-84
2021/06/07 19:10:07;;;;;;;;;;;25.00;95.90;;;;;;6150225;23;19983;-85
2021/06/07 19:12:34;;;;;;;;;;;24.90;95.70;;;;;;6150700;23;19932;-87
2021/06/07 19:15:04;;;;;;;;;;;24.70;95.80;;;;;;6152599;23;19924;-86
2021/06/07 19:17:31;;;;;;;;;;;24.70;95.60;;;;;;6150833;23;20332;-85
2021/06/07 19:19:58;;;;;;;;;;;24.70;95.70;;;;;;6150794;23;19927;-83
2021/06/07 19:22:25;;;;;;;;;;;24.50;95.70;;;;;;6151856;23;20332;-85
2021/06/07 19:24:52;;;;;;;;;;;24.10;95.90;;;;;;6151307;23;19928;-86
2021/06/07 19:27:19;;;;;;;;;;;23.30;96.70;;;;;;6151323;23;19971;-85
2021/06/07 19:29:46;;;;;;;;;;;22.60;97.30;;;;;;6153097;23;19916;-86
2021/06/07 19:32:13;;;;;;;;;;;21.80;98.60;;;;;;6149560;23;19970;-88
2021/06/07 19:34:40;;;;;;;;;;;21.10;99.60;;;;;;6151807;23;19916;-87
2021/06/07 19:37:07;;;;;;;;;;;20.40;99.90;;;;;;6151338;23;19923;-85
2021/06/07 19:39:33;;;;;;;;;;;19.90;99.90;;;;;;6152068;23;19964;-86
2021/06/07 19:42:00;;;;;;;;;;;19.60;99.90;;;;;;6153398;23;19995;-85
2021/06/07 19:44:27;;;;;;;;;;;19.30;99.90;;;;;;6152174;23;19920;-86
2021/06/07 19:46:54;;;;;;;;;;;18.90;99.90;;;;;;6153298;23;19921;-84
2021/06/07 19:49:21;;;;;;;;;;;18.60;99.90;;;;;;6151121;23;19921;-87
2021/06/07 19:51:48;;;;;;;;;;;18.30;99.90;;;;;;6151271;23;19963;-87
2021/06/07 19:54:14;;;;;;;;;;;18.00;99.90;;;;;;6150114;23;19923;-87
2021/06/07 19:56:41;;;;;;;;;;;17.80;99.90;;;;;;6149312;23;19924;-87
2021/06/07 19:59:08;;;;;;;;;;;17.50;99.90;;;;;;6150036;23;19921;-86
2021/06/07 20:01:37;;;;;;;;;;;17.20;99.90;;;;;;6152966;23;19917;-87
2021/06/07 20:04:04;;;;;;;;;;;17.10;99.90;;;;;;6152756;23;19929;-85
2021/06/07 20:06:32;;;;;;;;;;;16.90;99.90;;;;;;6151938;23;19978;-85
2021/06/07 20:08:58;;;;;;;;;;;16.70;99.90;;;;;;6151095;23;19916;-86
2021/06/07 20:11:26;;;;;;;;;;;16.50;99.90;;;;;;6150339;23;19972;-85
2021/06/07 20:13:53;;;;;;;;;;;16.30;99.90;;;;;;6152215;23;19920;-85
2021/06/07 20:16:21;;;;;;;;;;;16.20;99.90;;;;;;6149452;23;19920;-86
2021/06/07 20:18:49;;;;;;;;;;;16.00;99.90;;;;;;6151466;23;19995;-85
2021/06/07 20:21:18;;;;;;;;;;;15.90;99.90;;;;;;6149931;23;19988;-86
2021/06/07 20:23:44;;;;;;;;;;;15.70;99.90;;;;;;6152592;23;19916;-87
2021/06/07 20:26:11;;;;;;;;;;;15.60;99.90;;;;;;6151227;23;19916;-85
2021/06/07 20:28:39;;;;;;;;;;;15.50;99.90;;;;;;6152337;23;19921;-86
2021/06/07 20:31:06;;;;;;;;;;;15.40;99.90;;;;;;6153213;23;19917;-85
2021/06/07 20:33:32;;;;;;;;;;;15.30;99.90;;;;;;6153358;23;19916;-87
2021/06/07 20:35:59;;;;;;;;;;;15.20;99.90;;;;;;6153911;23;19920;-86
2021/06/07 20:38:28;;;;;;;;;;;15.10;99.90;;;;;;6154270;23;19916;-85
2021/06/07 20:40:55;;;;;;;;;;;15.00;99.90;;;;;;6153185;23;19920;-86
2021/06/07 20:43:22;;;;;;;;;;;14.90;99.90;;;;;;6153872;23;19916;-87
2021/06/07 20:45:48;;;;;;;;;;;14.80;99.90;;;;;;6154361;23;19924;-87
2021/06/07 20:48:15;;;;;;;;;;;14.80;99.90;;;;;;6153716;23;19943;-86
2021/06/07 20:50:42;;;;;;;;;;;14.70;99.90;;;;;;6151530;23;19917;-88
2021/06/07 20:53:09;;;;;;;;;;;14.70;99.90;;;;;;6152657;23;19963;-87
2021/06/07 20:55:36;;;;;;;;;;;14.60;99.90;;;;;;6152964;23;19975;-85
2021/06/07 20:58:02;;;;;;;;;;;14.50;99.90;;;;;;6152908;23;19916;-86
2021/06/07 21:00:29;;;;;;;;;;;14.50;99.90;;;;;;6151910;23;19987;-87
2021/06/07 21:02:56;;;;;;;;;;;14.40;99.90;;;;;;6153021;23;19916;-87
2021/06/07 21:05:23;;;;;;;;;;;14.40;99.90;;;;;;6152188;23;19920;-87
2021/06/07 21:07:51;;;;;;;;;;;14.30;99.90;;;;;;6153005;23;19916;-86
2021/06/07 21:10:18;;;;;;;;;;;14.20;99.90;;;;;;6153707;23;19921;-85
2021/06/07 21:12:45;;;;;;;;;;;14.20;99.90;;;;;;6153464;23;19920;-86
2021/06/07 21:15:12;;;;;;;;;;;14.10;99.90;;;;;;6152825;23;19917;-85
2021/06/07 21:17:39;;;;;;;;;;;14.10;99.90;;;;;;6155728;23;20325;-87
2021/06/07 21:20:08;;;;;;;;;;;14.00;99.90;;;;;;6154225;23;19944;-87
2021/06/07 21:22:35;;;;;;;;;;;14.00;99.90;;;;;;6155901;23;19917;-86
2021/06/07 21:25:02;;;;;;;;;;;13.90;99.90;;;;;;6156461;23;20230;-86
2021/06/07 21:27:30;;;;;;;;;;;13.90;99.90;;;;;;6154150;23;20284;-85
2021/06/07 21:29:57;;;;;;;;;;;13.90;99.90;;;;;;6156415;23;20399;-85
2021/06/07 21:32:23;;;;;;;;;;;13.80;99.90;;;;;;6153061;23;19924;-85
2021/06/07 21:34:51;;;;;;;;;;;13.80;99.90;;;;;;6154315;23;19979;-86
2021/06/07 21:37:18;;;;;;;;;;;13.80;99.90;;;;;;6155527;23;20256;-87
2021/06/07 21:39:46;;;;;;;;;;;13.80;99.90;;;;;;6154901;23;19992;-83
2021/06/07 21:42:12;;;;;;;;;;;13.80;99.90;;;;;;6153942;23;20252;-86
2021/06/07 21:44:39;;;;;;;;;;;13.70;99.90;;;;;;6154975;23;19917;-85
2021/06/07 21:47:06;;;;;;;;;;;13.70;99.90;;;;;;6153930;23;19916;-86
2021/06/07 21:49:33;;;;;;;;;;;13.70;99.90;;;;;;6154444;23;19916;-86
2021/06/07 21:52:00;;;;;;;;;;;13.70;99.90;;;;;;6156010;23;19922;-88
2021/06/07 21:54:27;;;;;;;;;;;13.70;99.90;;;;;;6155457;23;19916;-85
2021/06/07 21:56:54;;;;;;;;;;;13.70;99.90;;;;;;6154466;23;19917;-84
2021/06/07 21:59:20;;;;;;;;;;;13.60;99.90;;;;;;6154183;23;19920;-85
2021/06/07 22:01:48;;;;;;;;;;;13.70;99.90;;;;;;6153992;23;19922;-85
2021/06/07 22:04:15;;;;;;;;;;;13.70;99.90;;;;;;6154969;23;20396;-87